Tiempo atmosférico en la estación meteorológica de Buitrago del Lozoya, Madrid (1026 m.)



Fecha
DESCASC
Temp. máxima en grados centígrados (hora)
DESCASC
Temp. mínima en grados centígrados (hora)
DESCASC
Temp. media en grados centígrados
DESCASC
Racha de viento máxima en m/sg (hora)
DESCASC
Velocidad máxima media en intervalos de 10 minutos(hora)
DESCASC
Precipitaciones diarias en mm
DESCASC
Precipitaciones de 00:00 a 06:00 en mm
DESCASC
Precipitaciones de 06:00 a 12:00 en mm
DESCASC
Precipitaciones de 12:00 a 18:00 en mm
DESCASC
Precipitaciones de 18:00 a 24:00 en mm
DESCASC
08-12-2019 10 (15:20) -0.6 (06:40) 4.7 6.11 (15:10) 3.89 (23:20) 0.7 0 0.1 0.3 0.3
07-12-2019 13.1 (16:00) -1.1 (04:20) 6 3.89 (14:40) 1.94 (13:40) 0.1 0 0.1 0 0
06-12-2019 12.6 (14:40) 0.8 (08:40) 6.7 3.61 (16:30) 1.94 (16:50) 0 0 0 0 0
05-12-2019 12.4 (13:20) 5.5 (00:00) 8.9 7.22 (14:30) 3.33 (13:50) 0 0 0 0 0
04-12-2019 10.8 (14:10) 2.4 (00:00) 6.6 10 (15:30) 4.72 (15:30) 0.9 0.9 0 0 0
03-12-2019 9.2 (15:30) -3.7 (-00:0) 2.7 5 (16:30) 2.5 (16:30) 0 0 0 0 0
02-12-2019 9.5 (14:00) -0.6 (-00:0) 4.4 9.17 (13:10) 4.44 (13:00) 0.1 0 0 0.1 0
01-12-2019 6.4 (14:20) 0.4 (00:00) 3.4 3.89 (00:20) 1.67 (00:10) 7.4 0 0 2.2 5.2
30-11-2019 12.5 (14:30) 5 (00:00) 8.8 9.72 (21:30) 5 (15:20) 3.6 2.3 0 0.9 0.4
29-11-2019 12.3 (16:10) 7.8 (00:00) 10.1 4.17 (05:00) 1.94 (05:20) 2 1.4 0.3 0.2 0.1
28-11-2019 11.1 (11:00) 8.3 (00:00) 9.7 5.83 (15:00) 2.78 (12:30) 0 0 0 0 0
27-11-2019 11.8 (12:00) 7.3 (00:00) 9.6 9.72 (04:20) 4.17 (08:50) 0.1 0.1 0 0 0
26-11-2019 10.9 (23:59) 3.3 (00:00) 7.1 6.67 (23:59) 3.06 (19:00) 0.6 0 0 0.6 0
25-11-2019 14.6 (14:20) 5.5 (00:00) 10.1 9.72 (06:50) 3.89 (15:40) 1.3 0.9 0.4 0 0
24-11-2019 8.8 (15:30) 4.5 (00:00) 6.7 12.22 (00:50) 5.83 (00:20) 0.3 0 0 0 0.3
23-11-2019 8.3 (15:40) 4.3 (00:00) 6.3 18.61 (06:30) 8.89 (06:30) 4.5 4.1 0.4 0 0
22-11-2019 9 (16:40) 4.5 (00:00) 6.8 11.39 (23:59) 3.61 (11:00) 11.4 1 5.1 3.7 1.6
21-11-2019 7.1 (15:00) 2.6 (00:00) 4.8 3.06 (16:20) 1.67 (16:20) 1 0.1 0.7 0.2 0
20-11-2019 5.3 (13:10) -1.8 (-00:0) 1.8 5 (15:30) 2.78 (15:30) 1.9 0 0 1 0.9
19-11-2019 9.4 (13:40) -1.8 (-00:0) 3.8 5.28 (00:10) 2.5 (00:10) 0 0 0 0 0
18-11-2019 5.7 (13:50) 2.2 (00:00) 3.9 12.5 (09:20) 6.67 (09:20) 0 0 0 0 0
17-11-2019 -- (--) -- (--) -- -- (--) -- (--) -- 0 -- 5.3 0.2
16-11-2019 6.5 (15:50) 0.2 (00:00) 3.4 10.28 (14:20) 5.56 (13:30) 0 0 0 0 0
15-11-2019 5.8 (14:00) 1.3 (00:00) 3.6 13.61 (01:50) 6.11 (01:50) 0.4 0.4 0 0 0
14-11-2019 -- (--) -- (--) -- -- (--) -- (--) -- 0 -- 1.3 6.3
13-11-2019 11.9 (15:40) 6.9 (00:00) 9.4 18.06 (05:10) 8.61 (05:50) 13.1 8.3 4.8 0 0
12-11-2019 8.8 (14:10) 4.4 (00:00) 6.6 9.72 (11:00) 5.83 (05:50) 5.3 0 0 0 5.3

Gráficas

Temp. máximas Temp. mínimas Temp. medias Precipitaciones Rachas de viento máximas Velocidades máximas media en intervalos de 10 minutos

Datos horarios

Fecha y hora oficial Temperatura (ºC) Velocidad del viento (km/h) Dirección del viento Racha (km/h) Dirección de racha Precipitación (mm) Presión (hPa) Tendencia (hPa) Humedad (%)
2019-12-11 23:00:00 4.7 3 Este 30 Sudeste 0 908.1 -0.1 65
2019-12-11 22:00:00 5 7 Nordeste 25 Sudeste 0 908.3 0.2 60
2019-12-11 21:00:00 4.8 4 Sudeste 25 Este 0 908.1 1 60
2019-12-11 20:00:00 4.8 8 Este 19 Sudeste 0 908.2 2.1 66
2019-12-11 19:00:00 3.6 0 Calma 26 Sudeste 0 908.1 2.2 61
2019-12-11 18:00:00 5.2 0 Calma 40 Sudeste 0 907.1 1.2 56
2019-12-11 17:00:00 6.3 13 Este 48 Norte 0 906.1 0.2 58
2019-12-11 16:00:00 7 19 Noroeste 53 Este 0 905.9 -0.6 60
2019-12-11 15:00:00 6.7 23 Nordeste 53 Este 0 905.9 -0.9 64
2019-12-11 14:00:00 5.7 17 Sudeste 41 Sudeste 0.1 905.9 -1 77
2019-12-11 13:00:00 5.7 14 Este 30 Nordeste 0 906.5 0.2 82
2019-12-11 12:00:00 6.1 14 Este 35 Este 0 906.8 0.6 84
2019-12-11 11:00:00 4.5 0 Calma 8 Este 0.8 906.9 1.2 91
2019-12-11 10:00:00 3 0 Calma 6 Noroeste 0.9 906.3 0.3 89
2019-12-11 09:00:00 1.8 0 Calma 8 Sudoeste 0 906.2 0.1 85
2019-12-11 08:00:00 1 0 Calma 6 Este 0 905.7 -0.8 79
2019-12-11 07:00:00 1.3 0 Calma 8 Noroeste 0 906 -1.2 72
2019-12-11 06:00:00 1.3 0 Calma 12 Este 0 906.1 -1.4 67
2019-12-11 05:00:00 0.9 2 Norte 9 Norte 0 906.5 -1.7 81
2019-12-11 04:00:00 0.9 0 Calma 8 Este 0 907.2 -1.4 87
2019-12-11 03:00:00 1 0 Calma 7 Este 0 907.5 -1.4 85
2019-12-11 02:00:00 2.5 0 Calma 5 Noroeste 0 908.2 -0.6 82
2019-12-11 01:00:00 2.1 2 Sur 8 Este 0 908.6 -0.7 81
2019-12-11 00:00:00 2.2 2 Norte 12 Nordeste 0 908.9 -0.5 76
2019-12-10 23:00:00 3.1 0 Calma 12 Sudeste 0 908.8 -0.9 76
2019-12-10 22:00:00 3.6 0 Calma 10 Nordeste 0 909.3 -0.3 77
2019-12-10 21:00:00 4.4 3 Este 8 Este 0 909.4 -0.4 81
2019-12-10 20:00:00 4.6 2 Nordeste 6 Nordeste 0 909.7 0 79
2019-12-10 19:00:00 5.7 0 Calma 8 Sudoeste 0 909.6 -0.3 74
2019-12-10 18:00:00 7.4 4 Sudoeste 9 Sudoeste 0 909.8 -0.3 65
2019-12-10 17:00:00 8.9 3 Sudoeste 14 Sudoeste 0 909.7 -1.2 58
2019-12-10 16:00:00 11.3 5 Sudoeste 13 Sudoeste 0 909.9 -1.4 46
2019-12-10 15:00:00 12.9 6 Oeste 17 Sudoeste 0 910.1 -1.9 41
2019-12-10 14:00:00 13.7 0 Calma 13 Noroeste 0 910.9 -1.8 31
2019-12-10 13:00:00 12.9 5 Oeste 14 Sudoeste 0 911.3 -1.4 34
2019-12-10 12:00:00 9.8 4 Nordeste 7 Norte 0 912 -0.9 38
2019-12-10 11:00:00 7.4 2 Noroeste 9 Este 0 912.7 0 46
2019-12-10 10:00:00 3.3 2 Nordeste 7 Nordeste 0 912.7 -0.4 56
2019-12-10 09:00:00 -0.1 4 Este 14 Nordeste 0 912.9 -0.1 66
2019-12-10 08:00:00 -0.1 6 Este 14 Este 0 912.7 0 66
2019-12-10 07:00:00 -0.1 4 Nordeste 11 Nordeste 0 913.1 -0.2 66
2019-12-10 06:00:00 0.6 0 Calma 13 Nordeste 0 913 -0.5 62
2019-12-10 05:00:00 2.5 8 Nordeste 21 Sudeste 0 912.7 -1.1 57
2019-12-10 04:00:00 2.5 3 Sur 15 Sudeste 0 913.3 -0.4 66
2019-12-10 03:00:00 5.6 9 Sudeste 23 Este 0 913.5 -0.6 59
2019-12-10 02:00:00 4.9 9 Sudeste 19 Sur 0 913.8 -0.5 68
2019-12-10 01:00:00 4.6 6 Sudeste 25 Sur 0 913.7 -0.3 68
2019-12-10 00:00:00 5.9 9 Sur 27 Este 0 914.1 0 64
2019-12-09 23:00:00 5.9 11 Sur 23 Sudeste 0 914.3 0.8 66
2019-12-09 22:00:00 5.7 8 Sudeste 18 Sudeste 0 914 1 63
2019-12-09 21:00:00 5.6 6 Sur 14 Sudeste 0 914.1 1.7 54
2019-12-09 20:00:00 6.1 6 Sudeste 14 Este 0 913.5 1.1 43
2019-12-09 19:00:00 8.5 13 Este 37 Nordeste 0 913 1 32
2019-12-09 18:00:00 8.7 14 Nordeste 36 Norte 0 912.4 0.3 31
2019-12-09 17:00:00 9.9 10 Noroeste 35 Noroeste 0 912.4 0.9 30
2019-12-09 16:00:00 11 8 Noroeste 27 Noroeste 0 912 0 31
2019-12-09 15:00:00 12.6 2 Sudoeste 34 Noroeste 0 912.1 -0.6 31
2019-12-09 14:00:00 12.2 9 Norte 43 Norte 0 911.5 -1.1 29
2019-12-09 13:00:00 12.3 9 Noroeste 24 Noroeste 0 912 -0.2 27
2019-12-09 12:00:00 12.2 11 Oeste 28 Oeste 0 912.7 0.7 27
2019-12-09 11:00:00 10.3 7 Nordeste 12 Nordeste 0 912.6 0.9 41
2019-12-09 10:00:00 7.6 5 Nordeste 9 Nordeste 0 912.2 0.8 56
2019-12-09 09:00:00 4.5 3 Nordeste 12 Norte 0 912 1.4 73
2019-12-09 08:00:00 4.5 5 Norte 11 Norte 0 911.7 0.5 75
2019-12-09 07:00:00 4.2 0 Calma 11 Norte 0 911.4 0.5 72
2019-12-09 06:00:00 6.1 3 Noroeste 21 Norte 0 910.6 -0.6 64
2019-12-09 05:00:00 6.5 7 Norte 21 Norte 0 911.2 0.2 65
2019-12-09 04:00:00 5.3 6 Norte 17 Noroeste 0 910.9 0.2 68
2019-12-09 03:00:00 8.3 11 Oeste 35 Oeste 0 911.2 0.6 60
2019-12-09 02:00:00 8.7 13 Oeste 33 Oeste 0 911 0.8 63
2019-12-09 01:00:00 7.7 9 Noroeste 24 Noroeste 0 910.7 0.5 72
2019-12-09 00:00:00 8.1 4 Norte 21 Noroeste 0 910.6 0.5 73
2019-12-08 23:00:00 8.8 4 Noroeste 11 Sudoeste 0 910.2 1.3 92
2019-12-08 22:00:00 9.2 4 Oeste 13 Oeste 0.2 910.2 1.3 93
2019-12-08 21:00:00 8.8 6 Noroeste 11 Noroeste 0.1 910.1 1.6 93
2019-12-08 20:00:00 5.6 0 Calma 6 Nordeste 0 908.9 0.7 91
2019-12-08 19:00:00 5.5 0 Calma 6 Nordeste 0 908.9 0.8 91
2019-12-08 18:00:00 5.5 2 Nordeste 10 Este 0 908.5 0.3 90
2019-12-08 17:00:00 6.9 3 Nordeste 10 Este 0.2 908.2 -0.3 85
2019-12-08 16:00:00 9.2 4 Nordeste 22 Noroeste 0 908.1 -0.6 84
2019-12-08 15:00:00 8.4 7 Oeste 19 Oeste 0.1 908.2 -0.7 85
2019-12-08 14:00:00 6.7 5 Este 12 Este 0 908.5 -0.5 77
2019-12-08 13:00:00 6.8 5 Nordeste 9 Este 0 908.7 -0.4 74
2019-12-08 12:00:00 8.2 4 Sudeste 9 Este 0 908.9 0 71
2019-12-08 11:00:00 8.8 0 Calma 8 Sudeste 0 909 0 71
2019-12-08 10:00:00 4.5 3 Oeste 10 Oeste 0.1 909.1 0.6 85
2019-12-08 09:00:00 0.9 3 Noroeste 13 Oeste 0 908.9 0.4 91
2019-12-08 08:00:00 0.1 4 Oeste 11 Oeste 0 909 0.2 92
2019-12-08 07:00:00 0.1 3 Oeste 9 Noroeste 0 908.5 -0.3 92
2019-12-08 06:00:00 0.3 0 Calma 10 Noroeste 0 908.5 -0.8 92
2019-12-08 05:00:00 -0.3 0 Calma 7 Oeste 0 908.8 -0.5 92
2019-12-08 04:00:00 0 2 Oeste 6 Noroeste 0 908.8 -0.9 92
2019-12-08 03:00:00 -0.1 0 Calma 5 Oeste 0 909.3 -0.4 92
2019-12-08 02:00:00 0.6 3 Sudoeste 7 Sudoeste 0 909.3 -0.2 92
2019-12-08 01:00:00 0.9 0 Calma 4 Noroeste 0 909.7 0.4 91
2019-12-08 00:00:00 1 0 Calma 4 Nordeste 0 909.7 0.5 90
2019-12-07 23:00:00 2.4 0 Calma 9 Oeste 0 909.5 0.8 90
2019-12-07 22:00:00 2.4 5 Oeste 7 Oeste 0 909.3 1.2 89
2019-12-07 21:00:00 2.8 3 Oeste 5 Oeste 0 909.2 1.6 87
2019-12-07 20:00:00 4.6 0 Calma 6 Noroeste 0 908.7 1.3 84
2019-12-07 19:00:00 5.8 0 Calma 8 Este 0 908.1 0.9 77
2019-12-07 18:00:00 9 4 Nordeste 7 Nordeste 0 907.6 0.5 66
2019-12-07 17:00:00 12 4 Este 9 Este 0 907.4 0 53
2019-12-07 16:00:00 13 3 Sudeste 11 Nordeste 0 907.2 -0.7 45
2019-12-07 15:00:00 12.3 5 Este 14 Sudeste 0 907.1 -1.7 49
2019-12-07 14:00:00 11.8 7 Este 14 Este 0 907.4 -1.4 52
2019-12-07 13:00:00 11.6 2 Sudeste 9 Sur 0 907.9 -0.6 54
2019-12-07 12:00:00 9.3 3 Sudeste 7 Sudeste 0 908.8 0.4 65
2019-12-07 11:00:00 5.8 3 Oeste 7 Oeste 0 908.8 0.5 80
2019-12-07 10:00:00 2.7 0 Calma 6 Oeste 0.1 908.5 0.6 93
2019-12-07 09:00:00 0.3 4 Oeste 7 Oeste 0 908.4 0.6 93
2019-12-07 08:00:00 -0.6 0 Calma 8 Sudoeste 0 908.3 0.4 93
2019-12-07 07:00:00 -0.5 4 Oeste 6 Noroeste 0 907.9 -0.3 93
2019-12-07 06:00:00 -0.1 0 Calma 10 Noroeste 0 907.8 -0.3 93
2019-12-07 05:00:00 -0.5 0 Calma 7 Sudeste 0 907.9 -0.3 93
2019-12-07 04:00:00 0.8 3 Noroeste 8 Noroeste 0 908.2 -0.1 93
2019-12-07 03:00:00 0 0 Calma 6 Oeste 0 908.1 -0.5 92
2019-12-07 02:00:00 -0.1 0 Calma 8 Noroeste 0 908.2 0.1 92
2019-12-07 01:00:00 0.3 0 Calma 0 Calma 0 908.3 0.2 91
2019-12-07 00:00:00 1 0 Calma 6 Oeste 0 908.6 0.9 90
2019-12-06 23:00:00 1.4 0 Calma 6 Noroeste 0 908.1 0.6 89
2019-12-06 22:00:00 2.2 0 Calma 5 Oeste 0 908.1 1.4 88
2019-12-06 21:00:00 2.9 0 Calma 2 Este 0 907.7 1.7 84
2019-12-06 20:00:00 4.6 0 Calma 5 Oeste 0 907.5 1.3 80
2019-12-06 19:00:00 5.8 0 Calma 4 Norte 0 906.7 0.7 73
2019-12-06 18:00:00 8.7 2 Este 11 Sudeste 0 906 -0.1 61
2019-12-06 17:00:00 11.1 5 Sudeste 13 Sudeste 0 906.2 -0.3 53
2019-12-06 16:00:00 12.1 5 Este 9 Este 0 906 -1.2 49
2019-12-06 15:00:00 12.1 4 Este 10 Sudeste 0 906.1 -1.5 49
2019-12-06 14:00:00 12 2 Sudeste 11 Nordeste 0 906.5 -1.6 53
2019-12-06 13:00:00 10.6 4 Nordeste 11 Este 0 907.2 -0.7 56
2019-12-06 12:00:00 10.1 4 Sur 7 Sudeste 0 907.6 0.1 62
2019-12-06 11:00:00 7.2 3 Oeste 8 Sudoeste 0 908.1 1.1 72
2019-12-06 10:00:00 4.8 3 Sudoeste 9 Sudoeste 0 907.9 1.3 85
2019-12-06 09:00:00 1.3 0 Calma 4 Noroeste 0 907.5 1.3 90
2019-12-06 08:00:00 1.3 0 Calma 4 Oeste 0 907 0.7 89
2019-12-06 07:00:00 2 0 Calma 4 Noroeste 0 906.6 0.3 85
2019-12-06 06:00:00 4.1 2 Nordeste 7 Noroeste 0 906.2 -0.2 83
2019-12-06 05:00:00 6.4 5 Noroeste 6 Noroeste 0 906.3 0 79
2019-12-06 04:00:00 7 0 Calma -- -- -- 906.3 -0.2 76
2019-12-06 03:00:00 6.9 2 Oeste 9 Oeste 0 906.4 -0.3 76
2019-12-06 02:00:00 7 3 Oeste 9 Oeste 0 906.3 -0.2 75
2019-12-06 01:00:00 6.6 2 Noroeste 7 Oeste 0 906.5 0.3 76
2019-12-06 00:00:00 6.4 3 Oeste 7 Oeste 0 906.7 1 76
2019-12-05 23:00:00 6.9 0 Calma 12 Noroeste 0 906.5 1.3 72
2019-12-05 22:00:00 7.5 5 Norte 15 Norte 0 906.2 1.6 69
2019-12-05 21:00:00 7.2 3 Sudoeste 10 Sur 0 905.7 1.7 71
2019-12-05 20:00:00 7.5 4 Nordeste 15 Este 0 905.2 1.4 70
2019-12-05 19:00:00 7.4 2 Norte 12 Sudoeste 0 904.6 1.4 69
2019-12-05 18:00:00 8.5 0 Calma 7 Sur 0 904 1.2 65
2019-12-05 17:00:00 9.8 2 Sur 14 Nordeste 0 903.8 1.4 57
2019-12-05 16:00:00 10.5 5 Nordeste 21 Nordeste 0 903.2 0.3 53
2019-12-05 15:00:00 11 8 Norte 26 Nordeste 0 902.8 -0.5 51
2019-12-05 14:00:00 11.3 12 Nordeste 23 Nordeste 0 902.4 -0.9 50
2019-12-05 13:00:00 11.6 8 Nordeste -- -- -- 902.9 0.5 51
2019-12-05 12:00:00 10.5 5 Nordeste 12 Norte 0 903.3 1.8 53
2019-12-05 11:00:00 8.9 5 Nordeste 17 Nordeste 0 903.3 2.1 58
2019-12-05 10:00:00 8.1 0 Calma 6 Noroeste 0 902.4 1.8 65
2019-12-05 09:00:00 7.1 3 Norte 15 Este 0 901.5 1.8 66
2019-12-05 08:00:00 7.3 4 Norte 15 Norte 0 901.2 1.5 66
2019-12-05 07:00:00 7.3 5 Norte 13 Noroeste 0 900.6 1.8 64
2019-12-05 06:00:00 7.1 6 Noroeste 16 Norte 0 899.7 1.1 67
2019-12-05 05:00:00 6.2 3 Nordeste 14 Norte 0 899.7 1.8 76
2019-12-05 04:00:00 6 5 Nordeste 11 Nordeste 0 898.8 1.1 77
2019-12-05 03:00:00 5.9 3 Noroeste 9 Oeste 0 898.6 1.4 77
2019-12-05 02:00:00 5.8 4 Oeste 10 Oeste 0 897.9 1.2 75
2019-12-05 01:00:00 6.3 0 Calma 10 Sudoeste 0 897.7 1.3 70
2019-12-05 00:00:00 6.9 5 Oeste 22 Oeste 0 897.2 0.9 69
2019-12-04 23:00:00 6.7 4 Oeste 12 Norte 0 896.7 0.6 68
2019-12-04 22:00:00 7.7 0 Calma 30 Norte 0 896.4 0.5 63
2019-12-04 21:00:00 8.2 9 Noroeste 22 Noroeste 0 896.3 0.5 64
2019-12-04 20:00:00 7.3 2 Oeste 14 Noroeste 0 896.1 0.9 66
2019-12-04 19:00:00 8.3 2 Sudeste 17 Norte 0 895.9 1.4 64
2019-12-04 18:00:00 9 8 Norte 25 Norte 0 895.8 1.5 63
2019-12-04 17:00:00 8.8 10 Norte 23 Noroeste 0 895.2 1.1 63
2019-12-04 16:00:00 9.7 12 Norte 36 Norte 0 894.5 -0.7 58
2019-12-04 15:00:00 10.5 9 Norte 26 Nordeste 0 894.3 -1.3 57
2019-12-04 14:00:00 10.7 11 Nordeste 19 Nordeste 0 894.1 -2.1 59
2019-12-04 13:00:00 9 4 Oeste 9 Oeste 0 895.2 -1.3 71
2019-12-04 12:00:00 7.6 7 Oeste 13 Oeste 0 895.6 -0.8 76
2019-12-04 11:00:00 6.4 7 Oeste 14 Sudoeste 0 896.2 -0.1 83
2019-12-04 10:00:00 4.7 4 Noroeste 12 Oeste 0 896.5 0.3 87
2019-12-04 09:00:00 4.3 3 Oeste 8 Oeste 0 896.4 -0.2 89
2019-12-04 08:00:00 4 4 Oeste 13 Oeste 0 896.3 -1 89
2019-12-04 07:00:00 3.6 6 Oeste 12 Sudoeste 0 896.2 -1.8 88
2019-12-04 06:00:00 3.4 6 Oeste 12 Sudoeste 0 896.6 -1.9 89
2019-12-04 05:00:00 3.4 6 Oeste 11 Sudoeste 0.2 897.3 -1.5 89
2019-12-04 04:00:00 3.1 4 Oeste 8 Oeste 0.5 898 -1.2 86
2019-12-04 03:00:00 3.3 2 Noroeste 5 Oeste 0.2 898.5 -1.3 82
2019-12-04 02:00:00 3 0 Calma 7 Noroeste 0 898.8 -1.1 83
2019-12-04 01:00:00 2.4 0 Calma 5 Oeste 0 899.2 -0.5 83
2019-12-04 00:00:00 2.6 0 Calma 5 Nordeste 0 899.8 0.1 83
2019-12-03 23:00:00 2.3 0 Calma 7 Oeste 0 899.9 0.7 83
2019-12-03 22:00:00 1.5 0 Calma 11 Oeste 0 899.7 0.3 81
2019-12-03 21:00:00 0.7 3 Noroeste 8 Sudeste 0 899.7 1 82
2019-12-03 20:00:00 2 6 Noroeste 11 Noroeste 0 899.2 0.8 77
2019-12-03 19:00:00 2.9 2 Norte 10 Sudeste 0 899.4 1.2 70
2019-12-03 18:00:00 4.8 4 Sudeste 13 Sudeste 0 898.7 0.6 61
2019-12-03 17:00:00 6.9 5 Sudeste 18 Sudeste 0 898.4 -0.4 54
2019-12-03 16:00:00 8.9 5 Sudeste 12 Sudeste 0 898.2 -1.4 41
2019-12-03 15:00:00 8.7 4 Sudeste 13 Sudeste 0 898.1 -2.4 40
2019-12-03 14:00:00 8.4 5 Sudeste 14 Nordeste 0 898.8 -2.2 44
2019-12-03 13:00:00 7.9 2 Sur 9 Sur 0 899.6 -1.6 50
2019-12-03 12:00:00 5.9 4 Sudeste 9 Sur 0 900.5 -0.8 58
2019-12-03 11:00:00 3.7 0 Calma 6 Sudeste 0 901 -0.3 76
2019-12-03 10:00:00 0.5 0 Calma 6 Oeste 0 901.2 0 87
2019-12-03 09:00:00 -3.1 0 Calma 6 Noroeste 0 901.3 -0.1 90
2019-12-03 08:00:00 -3.5 0 Calma 9 Noroeste 0 901.3 -0.1 90
2019-12-03 07:00:00 -3 3 Noroeste 6 Noroeste 0 901.2 -0.5 91
2019-12-03 06:00:00 -2.8 0 Calma 5 Noroeste 0 901.4 -0.5 90
2019-12-03 05:00:00 -1.7 0 Calma 9 Oeste 0 901.4 -0.8 91
2019-12-03 04:00:00 -1.9 0 Calma 7 Noroeste 0 901.7 -1 90
2019-12-03 03:00:00 -2.1 2 Noroeste 5 Noroeste 0 901.9 -1.3 90
2019-12-03 02:00:00 -1.7 0 Calma 3 Noroeste 0 902.2 -1 89
2019-12-03 01:00:00 -0.7 0 Calma 5 Oeste 0 902.7 -0.4 88
2019-12-03 00:00:00 -0.6 0 Calma 5 Oeste 0 903.2 0 86
2019-12-02 23:00:00 0 2 Oeste 13 Oeste 0 903.2 0.4 84
2019-12-02 22:00:00 0.5 4 Noroeste 8 Oeste 0 903.1 1 82
2019-12-02 21:00:00 1.2 2 Oeste 10 Noroeste 0 903.2 1.6 75
2019-12-02 20:00:00 2.6 4 Noroeste 11 Noroeste 0 902.8 1.6 67
2019-12-02 19:00:00 5.3 0 Calma 17 Norte 0 902.1 1.3 56
2019-12-02 18:00:00 6.2 6 Nordeste 25 Nordeste 0 901.6 1 51
2019-12-02 17:00:00 7.9 12 Nordeste 26 Nordeste 0 901.2 0.2 47
2019-12-02 16:00:00 9.2 12 Nordeste 27 Nordeste 0 900.8 -0.2 46
2019-12-02 15:00:00 9.3 14 Nordeste 29 Nordeste 0 900.6 -0.6 46
2019-12-02 14:00:00 9.3 12 Nordeste 33 Nordeste 0 901 -0.3 47
2019-12-02 13:00:00 8.6 16 Nordeste 31 Nordeste 0.1 901 0 49
2019-12-02 12:00:00 8.5 12 Nordeste 26 Nordeste 0 901.2 0.9 49
2019-12-02 11:00:00 8 4 Nordeste 20 Norte 0 901.3 1.4 54
2019-12-02 10:00:00 6.2 8 Norte 22 Norte 0 901 1.4 66
2019-12-02 09:00:00 1.4 6 Oeste 13 Oeste 0 900.3 1.2 84
2019-12-02 08:00:00 1.4 5 Noroeste 12 Noroeste 0 899.9 1.1 85
2019-12-02 07:00:00 1.7 3 Noroeste 15 Oeste 0 899.6 1 83
2019-12-02 06:00:00 2.3 3 Oeste 10 Noroeste 0 899.1 0.6 77
2019-12-02 05:00:00 4.7 4 Nordeste 21 Norte 0 898.8 0.7 68
2019-12-02 04:00:00 4.5 5 Nordeste 13 Nordeste 0 898.6 0.3 75
2019-12-02 03:00:00 4.9 3 Nordeste 14 Norte 0 898.5 0.2 71
2019-12-02 02:00:00 5.2 6 Norte 16 Norte 0 898.1 -0.2 80
2019-12-02 01:00:00 4.6 3 Este 11 Nordeste 0 898.3 0.4 90
2019-12-02 00:00:00 3.7 2 Oeste 12 Oeste 0.4 898.3 0.7 90
2019-12-01 23:00:00 3.4 4 Oeste 10 Sudoeste 0.1 898.3 0.7 90
2019-12-01 22:00:00 3.4 5 Oeste 11 Oeste 0.4 897.9 1.1 90
2019-12-01 21:00:00 3.6 2 Oeste 11 Oeste 2.6 897.6 1.2 90
2019-12-01 20:00:00 3.9 2 Noroeste 12 Sudoeste 1.1 897.6 1.4 89
2019-12-01 19:00:00 4.2 5 Oeste 13 Oeste 0.6 896.8 0.6 87
2019-12-01 18:00:00 4.6 2 Oeste 10 Sudoeste 1 896.4 0.2 86
2019-12-01 17:00:00 5.2 5 Sudoeste 10 Sudoeste 0.5 896.2 -0.3 85
2019-12-01 16:00:00 5.6 3 Sudoeste 8 Sudoeste 0.4 896.2 -0.7 81
2019-12-01 15:00:00 6.1 3 Oeste 7 Oeste 0.1 896.2 -1.5 75
2019-12-01 14:00:00 6.1 0 Calma 8 Sudeste 0.2 896.5 -1.4 74
2019-12-01 13:00:00 6 -- -- 6 Oeste 0 896.9 -1 76
2019-12-01 12:00:00 5.3 -- -- 10 Noroeste 0 897.7 0.1 84
2019-12-01 11:00:00 4.6 -- -- 5 Este 0 897.9 0.2 91
2019-12-01 10:00:00 2.9 -- -- 9 Noroeste 0 897.9 0.6 93
2019-12-01 09:00:00 2.6 -- -- 10 Noroeste 0 897.6 0.1 93
2019-12-01 08:00:00 2.4 -- -- 4 Sudeste 0 897.7 0 92
2019-12-01 07:00:00 2.2 -- -- 10 Oeste 0 897.3 -1.1 92
2019-12-01 06:00:00 2.4 -- -- 9 Noroeste 0 897.5 -1.2 91
2019-12-01 05:00:00 2.5 -- -- 7 Sudeste 0 897.7 -- 90
2019-12-01 04:00:00 1.1 -- -- 6 Norte 0 898.4 -0.8 88
2019-12-01 03:00:00 0.7 -- -- 10 Sur 0 898.7 -0.8 84
2019-12-01 02:00:00 -- -- -- -- -- -- -- -- --
2019-12-01 01:00:00 3.3 -- -- 14 Noroeste 0 899.2 -0.8 72
2019-12-01 00:00:00 5 -- -- 18 Oeste 0 899.5 -1.8 63
2019-11-30 23:00:00 6.1 -- -- 21 Oeste 0 899.7 -1.5 61
2019-11-30 22:00:00 5.6 -- -- 35 Noroeste 0.3 900 -0.5 72
2019-11-30 21:00:00 6 -- -- 29 Oeste 0 901.3 0.4 67
2019-11-30 20:00:00 7.2 -- -- 24 Noroeste 0.1 901.2 1.6 73
2019-11-30 19:00:00 7.4 -- -- 23 Noroeste 0 900.5 0.3 74
2019-11-30 18:00:00 8.5 -- -- 31 Noroeste 0.9 900.9 0.1 74
2019-11-30 17:00:00 11.3 -- -- 33 Sur 0 899.6 -2 74
2019-11-30 16:00:00 11.4 -- -- 33 Sur 0 900.2 -2.5 76
2019-11-30 15:00:00 12 -- -- 29 Sudeste 0 900.8 -3 73
2019-11-30 14:00:00 12.1 -- -- 23 Sur 0 901.6 -2.8 77
2019-11-30 13:00:00 11.7 -- -- 18 Sur 0 902.7 -1.7 81
2019-11-30 12:00:00 10.6 -- -- 9 Noroeste 0 903.8 -0.5 90
2019-11-30 11:00:00 9.7 -- -- 6 Sudeste 0 904.4 -0.1 91
2019-11-30 10:00:00 9.3 -- -- 3 Sur 0 904.4 -0.1 92
2019-11-30 09:00:00 8.8 -- -- 4 Sudoeste 0 904.3 -0.2 92
2019-11-30 08:00:00 8.7 -- -- 4 Sudeste 0 904.5 -0.6 92
2019-11-30 07:00:00 8.7 -- -- 6 Noroeste 0 904.5 -0.9 92
2019-11-30 06:00:00 8.6 -- -- 4 Noroeste 0 904.5 -1.1 92
2019-11-30 05:00:00 8.5 -- -- 6 Oeste 0 905.1 -0.8 92
2019-11-30 04:00:00 8.6 -- -- 4 Sur 0 905.4 -1 92
2019-11-30 03:00:00 8.6 -- -- 6 Oeste 0.1 905.6 -0.9 92
2019-11-30 02:00:00 8.6 -- -- 6 Oeste 0.1 905.9 -0.4 92
2019-11-30 01:00:00 8.5 -- -- 5 Sudoeste 2.1 906.4 0.2 92
2019-11-30 00:00:00 8.4 -- -- 4 Este 0.1 906.5 0.3 92
2019-11-29 23:00:00 8.6 -- -- 5 Sudeste 0 906.3 0.5 92
2019-11-29 22:00:00 8.5 -- -- 5 Nordeste 0 906.2 0.4 92
2019-11-29 21:00:00 9.3 -- -- 5 Oeste 0 906.2 0.7 92
2019-11-29 20:00:00 10.4 -- -- 6 Nordeste 0 905.8 0.7 91
2019-11-29 19:00:00 9.5 -- -- 5 Este 0 905.8 0.9 89
2019-11-29 18:00:00 11.1 -- -- 4 Norte 0 905.5 0.6 88
2019-11-29 17:00:00 11.9 -- -- 7 Este 0 905.1 0 87
2019-11-29 16:00:00 12.1 -- -- 5 Este 0 904.9 -0.7 88
2019-11-29 15:00:00 11.5 -- -- 8 Este 0 904.9 -0.8 91
2019-11-29 14:00:00 11 -- -- 7 Nordeste 0.2 905.1 -0.6 92
2019-11-29 13:00:00 10.8 -- -- 10 Este 0 905.6 0.9 93
2019-11-29 12:00:00 10.8 -- -- 15 Este 0 905.7 1.4 93
2019-11-29 11:00:00 9.9 -- -- 12 Este 0 905.7 2 93
2019-11-29 10:00:00 8.9 -- -- 10 Este 0.2 904.7 1.6 93
2019-11-29 09:00:00 8.1 -- -- 6 Norte 0 904.3 1.4 91
2019-11-29 08:00:00 8.6 -- -- 10 Noroeste 0.1 903.7 1.2 90
2019-11-29 07:00:00 9.4 -- -- 9 Oeste 0 903.1 0.6 89
2019-11-29 06:00:00 10.5 -- -- 15 Oeste 0 902.9 0.9 89
2019-11-29 05:00:00 10.1 -- -- 15 Sudeste 0.1 902.5 0.5 92
2019-11-29 04:00:00 9.1 -- -- 7 Nordeste 0.4 902.5 0.5 91
2019-11-29 03:00:00 9.2 -- -- 8 Norte 0.4 902 0.2 91
2019-11-29 02:00:00 8.9 -- -- 8 Nordeste 0.5 902 0.2 90
2019-11-29 01:00:00 8.9 -- -- 12 Norte 0 902 0.1 87
2019-11-29 00:00:00 8.9 -- -- 14 Nordeste 0 901.8 0.2 85
2019-11-28 23:00:00 8.8 -- -- 10 Nordeste 0 901.8 0.6 85
2019-11-28 22:00:00 8.9 -- -- 12 Norte 0 901.9 0.7 85
2019-11-28 21:00:00 8.6 -- -- 10 Este 0 901.6 0.6 86
2019-11-28 20:00:00 8.6 -- -- 7 Este 0 901.2 0.4 86
2019-11-28 19:00:00 8.5 -- -- 10 Nordeste 0 901.2 0.4 85
2019-11-28 18:00:00 8.7 -- -- 12 Este 0 901 0.3 82
2019-11-28 17:00:00 9.5 -- -- 14 Este 0 900.8 -0.4 80
2019-11-28 16:00:00 9.5 -- -- 19 Este 0 900.8 -0.3 77
2019-11-28 15:00:00 9.5 -- -- 21 Este 0 900.7 -1.1 77
2019-11-28 14:00:00 10.1 -- -- 19 Este 0 901.2 -0.8 76
2019-11-28 13:00:00 10.6 -- -- 19 Sudeste 0 901.1 -0.5 77
2019-11-28 12:00:00 9.4 -- -- 15 Este 0 901.8 0.8 77
2019-11-28 11:00:00 10.9 -- -- 13 Este 0 902 1.4 74
2019-11-28 10:00:00 8.8 -- -- 17 Nordeste 0 901.6 1.4 77
2019-11-28 09:00:00 8.4 -- -- 14 Norte 0 901 1.2 80
2019-11-28 08:00:00 8.7 -- -- 10 Norte 0 900.6 0.8 73
2019-11-28 07:00:00 8.9 -- -- 12 Sur 0 900.2 0.8 69
2019-11-28 06:00:00 9 -- -- 10 Sur 0 899.8 0.8 68
2019-11-28 05:00:00 9.2 -- -- 17 Este 0 899.8 0.9 66
2019-11-28 04:00:00 9 -- -- 12 Este 0 899.4 0.2 66
2019-11-28 03:00:00 9 -- -- 10 Este 0 899 -0.2 65
2019-11-28 02:00:00 9.3 -- -- 19 Sur 0 898.9 -0.3 63
2019-11-28 01:00:00 9.3 -- -- 19 Sudeste 0 899.2 0.7 62
2019-11-28 00:00:00 9.4 -- -- 24 Sudoeste 0 899.2 0.7 60
2019-11-27 23:00:00 9.5 -- -- 16 Sur 0 899.2 0.9 60
2019-11-27 22:00:00 9.6 -- -- 14 Sudoeste 0 898.5 0.4 58
2019-11-27 21:00:00 9.1 -- -- 12 Nordeste 0 898.5 0.7 57
2019-11-27 20:00:00 8.8 -- -- 14 Noroeste 0 898.3 0.7 56
2019-11-27 19:00:00 9.8 -- -- 19 Oeste 0 898.1 0.9 53
2019-11-27 18:00:00 10.3 -- -- 15 Oeste 0 897.8 0.7 52
2019-11-27 17:00:00 10.9 -- -- 15 Oeste 0 897.6 0 51
2019-11-27 16:00:00 11.2 -- -- 20 Sudoeste 0 897.2 -0.8 50
2019-11-27 15:00:00 11.2 -- -- 24 Sudoeste 0 897.1 -1.2 50
2019-11-27 14:00:00 11.1 -- -- 23 Sur 0 897.6 -0.6 51
2019-11-27 06:00:00 8.2 -- -- 17 Sudoeste 0 896.2 1.2 60
2019-11-27 05:00:00 8.9 -- -- 35 Oeste 0 895.6 1.2 55
2019-11-27 04:00:00 9.4 -- -- 22 Sudoeste 0 895 0.2 60
2019-11-27 03:00:00 9.4 -- -- 14 Nordeste 0 895 0.2 73
2019-11-27 02:00:00 9.5 -- -- 12 Oeste 0 894.4 0.3 77
2019-11-27 01:00:00 9.8 -- -- 22 Sudoeste 0.1 894.8 0.5 76
2019-11-27 00:00:00 10.8 -- -- 24 Sudoeste 0 894.8 0.3 68
2019-11-26 23:00:00 9.9 -- -- 12 Este 0 894.1 -0.5 90
2019-11-26 22:00:00 10 -- -- 13 Sudeste 0 894.3 -0.4 90
2019-11-26 21:00:00 10.3 -- -- 15 Este 0 894.5 -0.9 91
2019-11-26 20:00:00 10.5 -- -- 21 Este 0 894.6 -0.9 90
2019-11-26 19:00:00 10.7 -- -- 19 Sudeste 0 894.7 -1.7 88
2019-11-26 18:00:00 10.3 -- -- 17 Sudeste 0 895.4 -1.6 92
2019-11-26 17:00:00 9.8 -- -- 9 Este 0.6 895.5 -2.6 92
2019-11-26 16:00:00 9.5 -- -- 12 Sudeste 0 896.4 -2.4 91
2019-11-26 15:00:00 9.2 -- -- 13 Este 0 897 -2.6 90
2019-11-26 14:00:00 9.1 -- -- 10 Sudeste 0 898.1 -2.1 87
2019-11-26 13:00:00 9.9 -- -- 9 Este 0 898.8 -1.2 77
2019-11-26 12:00:00 9.4 -- -- 10 Este 0 899.6 -0.5 84
2019-11-26 11:00:00 8.9 -- -- 11 Este 0 900.2 0.3 77
2019-11-26 10:00:00 8.4 -- -- 5 Este 0 900 0.1 83
2019-11-26 09:00:00 5.8 -- -- 7 Oeste 0 900.1 -0.1 88
2019-11-26 08:00:00 5.1 -- -- 4 Oeste 0 899.9 -0.6 90
2019-11-26 07:00:00 4.9 -- -- 7 Oeste 0 899.9 -0.9 90
2019-11-26 06:00:00 4.3 -- -- 9 Noroeste 0 900.2 -0.3 90
2019-11-26 05:00:00 3.5 -- -- 4 Oeste 0 900.5 -0.5 90
2019-11-26 04:00:00 4.4 -- -- 6 Oeste 0 900.8 -0.3 87
2019-11-26 03:00:00 4.7 -- -- 9 Oeste 0 900.5 -0.6 88
2019-11-26 02:00:00 4.8 -- -- 9 Oeste 0 901 -0.2 85
2019-11-26 01:00:00 5.5 -- -- 6 Noroeste 0 901.1 -0.1 85
2019-11-26 00:00:00 6.3 -- -- 9 Sur 0 901.1 0 81
2019-11-25 23:00:00 7.2 -- -- 9 Oeste 0 901.2 0.3 81
2019-11-25 22:00:00 7.5 -- -- 8 Noroeste 0 901.2 0.3 77
2019-11-25 21:00:00 8.6 -- -- 6 Sur 0 901.1 0.7 73
2019-11-25 20:00:00 9.6 -- -- 5 Nordeste 0 900.9 0.5 67
2019-11-25 19:00:00 11 -- -- 8 Sur 0 900.9 0.8 61
2019-11-25 18:00:00 11.5 -- -- 17 Noroeste 0 900.4 0.6 57
2019-11-25 17:00:00 12.3 -- -- 17 Oeste 0 900.4 1 54
2019-11-25 16:00:00 12.7 -- -- 30 Oeste 0 900.1 0.3 50
2019-11-25 15:00:00 13.2 -- -- 33 Sudoeste 0 899.8 -0.2 51
2019-11-25 14:00:00 14.2 -- -- 33 Oeste 0 899.4 -0.5 49
2019-11-25 13:00:00 14.2 -- -- 20 Sudoeste 0 899.8 0.6 51
2019-11-25 12:00:00 11.7 -- -- 8 Este 0 900 1.2 70
2019-11-25 11:00:00 10.3 -- -- 11 Nordeste 0 899.9 1 75
2019-11-25 10:00:00 11.5 -- -- 24 Sudoeste 0 899.2 0.5 60
2019-11-25 09:00:00 11.3 -- -- 29 Sur 0 898.8 0.4 58
2019-11-25 08:00:00 10.6 -- -- 18 Oeste 0 898.9 0.4 68
2019-11-25 07:00:00 10.3 -- -- 35 Oeste 0.4 898.7 0.3 75
2019-11-25 06:00:00 10.8 -- -- 28 Sudoeste 0 898.4 0.1 74
2019-11-25 05:00:00 7.9 -- -- 12 Sudoeste 0.1 898.5 -0.3 91
2019-11-25 04:00:00 6.4 -- -- 18 Este 0 898.4 -0.9 91
2019-11-25 03:00:00 5.9 -- -- 12 Nordeste 0.3 898.3 -0.9 90
2019-11-25 02:00:00 5.7 -- -- 7 Este 0.3 898.8 -0.9 88
2019-11-25 01:00:00 5.7 -- -- 9 Este 0.2 899.3 0.2 87
2019-11-25 00:00:00 5.9 -- -- 8 Norte 0.2 899.2 -0.2 85
2019-11-24 23:00:00 6.4 -- -- 6 Noroeste 0.1 899.7 0.5 77
2019-11-24 22:00:00 6.4 -- -- 6 Noroeste 0 899.1 -0.1 74
2019-11-24 21:00:00 6.8 -- -- 7 Norte 0 899.4 0.3 70
2019-11-24 20:00:00 7 -- -- 9 Norte 0 899.2 0 65
2019-11-24 19:00:00 7.1 -- -- 9 Norte 0 899.2 0.2 64
2019-11-24 18:00:00 7.4 -- -- 13 Oeste 0 899.1 0.4 60
2019-11-24 17:00:00 8.1 -- -- 14 Oeste 0 899.2 0 54
2019-11-24 16:00:00 8.7 -- -- 6 Norte 0 899 -0.5 48
2019-11-24 15:00:00 8.4 -- -- 14 Este 0 898.7 -1.9 49
2019-11-24 14:00:00 8.1 -- -- 11 Oeste 0 899.2 -1.7 51
2019-11-24 13:00:00 7.5 -- -- 20 Oeste 0 899.5 -0.9 55
2019-11-24 12:00:00 6.2 -- -- 22 Oeste 0 900.6 0.9 63
2019-11-24 11:00:00 5.5 -- -- 9 Oeste 0 900.9 1.8 71
2019-11-24 10:00:00 4.6 -- -- 24 Oeste 0 900.4 1.8 73
2019-11-24 09:00:00 4.6 -- -- 23 Noroeste 0 899.7 1.4 73
2019-11-24 08:00:00 4.6 -- -- 29 Noroeste 0 899.1 1.5 75
2019-11-24 07:00:00 4.5 -- -- 29 Oeste 0 898.6 1.2 77
2019-11-24 06:00:00 4.6 -- -- 31 Sudoeste 0 898.3 1.3 77
2019-11-24 05:00:00 4.8 -- -- 31 Oeste 0 897.6 0.8 74
2019-11-24 04:00:00 4.9 -- -- 28 Oeste 0 897.4 1.2 74
2019-11-24 03:00:00 5.1 -- -- 34 Sudoeste 0 897 1.1 73
2019-11-24 02:00:00 4.9 -- -- 43 Sudoeste 0 896.8 1.3 75
2019-11-24 01:00:00 4.9 -- -- 44 Oeste 0 896.2 1.1 73
2019-11-24 00:00:00 5.4 -- -- 50 Sudeste 0 895.9 1.3 69
2019-11-23 23:00:00 5.8 -- -- 46 Nordeste 0 895.5 1.4 65
2019-11-23 22:00:00 6.3 -- -- 49 Norte 0 895.1 1.8 61
2019-11-23 21:00:00 6.5 -- -- 46 Este 0 894.6 2.2 61
2019-11-23 20:00:00 6.7 -- -- 38 Este 0 894.1 2.8 60
2019-11-23 19:00:00 6.8 -- -- 46 Noroeste 0 893.3 2.9 58
2019-11-23 18:00:00 7.1 -- -- 39 Noroeste 0 892.4 2.6 60
2019-11-23 17:00:00 7.3 -- -- 46 Oeste 0 891.3 2 56
2019-11-23 16:00:00 8.1 -- -- 57 Sudeste 0 890.4 1 56
2019-11-23 15:00:00 7.2 -- -- 43 Oeste 0 889.8 1.1 57
2019-11-23 14:00:00 7.2 -- -- 45 Sudoeste 0 889.3 1.6 58
2019-11-23 13:00:00 6.9 -- -- 42 Sur 0 889.4 3 61
2019-11-23 12:00:00 5.8 -- -- 29 Sudeste 0 888.7 3.9 63
2019-11-23 11:00:00 5.4 -- -- 40 Sudeste 0 887.7 3.4 64
2019-11-23 10:00:00 4.6 -- -- 44 Sur 0 886.4 5 68
2019-11-23 09:00:00 4.4 -- -- 51 Sudeste 0 884.8 4.6 71
2019-11-23 08:00:00 4.5 -- -- 54 Sur 0 884.3 4.7 72
2019-11-23 07:00:00 4.6 -- -- 67 Sur 0.4 881.4 1.8 73
2019-11-23 06:00:00 4.6 -- -- 59 Norte 1.7 880.2 1 75
2019-11-23 05:00:00 5 -- -- 46 Este 1.3 879.6 0.3 71
2019-11-23 04:00:00 5.2 -- -- 37 Nordeste 0.1 879.6 0.5 68
2019-11-23 03:00:00 5.9 -- -- 42 Nordeste 0 879.2 0.1 64
2019-11-23 02:00:00 5.8 -- -- 49 Noroeste 0.6 879.3 -0.1 70
2019-11-23 01:00:00 6.2 -- -- 32 Oeste 0.4 879.1 -0.5 73
2019-11-23 00:00:00 7.2 -- -- 41 Oeste 0.1 879.1 -0.4 71
2019-11-22 23:00:00 7.1 -- -- 20 Sudoeste 0 879.4 0.4 76
2019-11-22 22:00:00 7.3 -- -- 23 Oeste 0 879.6 0.9 73
2019-11-22 21:00:00 7.3 -- -- 13 Norte 0.1 879.5 1.5 83
2019-11-22 20:00:00 7.1 -- -- 10 Sudoeste 0 879 1 88
2019-11-22 19:00:00 7.9 -- -- 21 Norte 1.4 878.7 -0.2 89
2019-11-22 18:00:00 8.4 -- -- 18 Este 0 878 -1.5 93
2019-11-22 17:00:00 8.8 -- -- 19 Este 0 878 -2.8 93
2019-11-22 16:00:00 8.8 -- -- 19 Sudeste 0 878.9 -3.5 94
2019-11-22 15:00:00 8.1 -- -- 15 Este 0.4 879.5 -4.5 94
2019-11-22 14:00:00 7.5 -- -- 15 Sur 2.4 880.8 -4.3 94
2019-11-22 13:00:00 7.2 -- -- 22 Sudeste 0.9 882.4 -3.9 94
2019-11-22 12:00:00 7 -- -- 20 Sudeste 0.4 884 -2.8 94
2019-11-22 11:00:00 6.5 -- -- 22 Sudeste 0.2 885.1 -2.2 94
2019-11-22 10:00:00 5.9 -- -- 17 Sudeste 1.8 886.3 -1.7 94
2019-11-22 09:00:00 5.6 -- -- 18 Sudeste 1.7 886.8 -1.8 94
2019-11-22 08:00:00 5.5 -- -- 15 Sudeste 0.9 887.3 -2.4 94
2019-11-22 07:00:00 5.3 -- -- 16 Sudeste 0.1 888 -2.4 94
2019-11-22 06:00:00 5.1 -- -- 8 Este 0.4 888.6 -2.6 93
2019-11-22 05:00:00 4.9 -- -- 0 Calma 0.2 889.7 -1.6 93
2019-11-22 04:00:00 4.8 -- -- 2 Sudeste 0.3 890.4 -1.6 93
2019-11-22 03:00:00 4.8 -- -- 2 Sudeste 0.1 891.2 -1.3 93
2019-11-22 02:00:00 4.8 -- -- 5 Sudeste 0 891.3 -1.6 93
2019-11-22 01:00:00 4.8 -- -- 7 Este 0 892 -1.6 93
2019-11-22 00:00:00 4.7 -- -- 9 Sudeste 0 892.5 -0.2 93
2019-11-21 23:00:00 4.9 -- -- 9 Sudeste 0 892.9 0.2 93
2019-11-21 22:00:00 5.2 -- -- 4 Sudeste 0 893.6 0.9 92
2019-11-21 21:00:00 5.2 -- -- 8 Este 0 892.7 0.1 91
2019-11-21 20:00:00 5.7 -- -- 5 Este 0 892.7 0.2 91
2019-11-21 19:00:00 5.9 -- -- 7 Sudeste 0 892.7 0.2 90
2019-11-21 18:00:00 6 -- -- 9 Sudeste 0 892.6 0.3 88
2019-11-21 17:00:00 6.3 -- -- 11 Sudeste 0 892.5 -0.2 85
2019-11-21 16:00:00 6.8 -- -- 8 Este 0 892.5 -0.6 81
2019-11-21 15:00:00 6.9 -- -- 10 Nordeste 0 892.3 -1.6 80
2019-11-21 14:00:00 6.3 -- -- 7 Sudeste 0 892.7 -1.2 82
2019-11-21 13:00:00 5.5 -- -- 7 Este 0.2 893.1 -0.5 85
2019-11-21 12:00:00 4.7 -- -- 10 Noroeste 0.2 893.9 0.3 86
2019-11-21 11:00:00 4.3 -- -- 4 Norte 0.2 893.9 0.7 89
2019-11-21 10:00:00 3.6 -- -- 2 Norte 0.3 893.6 0.6 90
2019-11-21 09:00:00 2.8 -- -- 4 Sudeste 0 893.6 0.7 93
2019-11-21 08:00:00 2.8 -- -- 4 Este 0 893.2 0.2 93
2019-11-21 07:00:00 2.6 -- -- 6 Sudeste 0 893 -0.5 93
2019-11-21 06:00:00 3 -- -- 8 Sudeste 0 892.9 -0.5 93
2019-11-21 05:00:00 3.2 -- -- 4 Sudeste 0 893 -0.4 93
2019-11-21 04:00:00 3.3 -- -- 3 Este 0 893.5 0 93
2019-11-21 03:00:00 3.2 -- -- 2 Sudeste 0 893.4 -0.4 93
2019-11-21 02:00:00 3.1 -- -- 5 Sudeste 0 893.4 -0.3 93
2019-11-21 01:00:00 3.2 -- -- 5 Este 0.1 893.5 -0.3 93
2019-11-21 00:00:00 3 -- -- 4 Este 0 893.8 0.2 93
2019-11-20 23:00:00 3 -- -- 5 Este 0 893.7 0.1 93
2019-11-20 22:00:00 3.1 -- -- 5 Este 0.1 893.8 0.5 93
2019-11-20 21:00:00 3.1 -- -- 7 Este 0 893.6 0.1 92
2019-11-20 20:00:00 3.2 -- -- 8 Sudeste 0.1 893.6 0.1 92
2019-11-20 19:00:00 3.6 -- -- 5 Sudeste 0.7 893.3 -0.1 90
2019-11-20 18:00:00 3.8 -- -- 10 Sudeste 0.2 893.5 -0.1 90
2019-11-20 17:00:00 4.3 -- -- 17 Sudeste 0.4 893.5 -0.8 89
2019-11-20 16:00:00 4.7 -- -- 18 Sudeste 0.4 893.4 -1.5 84
2019-11-20 15:00:00 5.1 -- -- 15 Sudeste 0 893.6 -2.3 77
2019-11-20 14:00:00 5 -- -- 9 Este 0 894.3 -1.9 75
2019-11-20 13:00:00 5 -- -- 9 Sudeste 0 894.9 -1.7 75
2019-11-20 12:00:00 4.4 -- -- 5 Oeste 0 895.9 -0.8 81
2019-11-20 11:00:00 2.7 -- -- 4 Oeste 0 896.2 -0.3 87
2019-11-20 10:00:00 1 -- -- 5 Sudoeste 0 896.6 0.1 93
2019-11-20 09:00:00 -0.6 -- -- -- -- 0 896.7 0 93
2019-11-20 08:00:00 -1.2 -- -- 3 Sudoeste 0 896.5 -0.6 93
2019-11-20 07:00:00 -1.5 -- -- 3 Noroeste 0 896.5 -1 92
2019-11-20 06:00:00 -0.4 -- -- 5 Noroeste 0 896.7 -1.2 93
2019-11-20 05:00:00 -0.1 -- -- 4 Oeste 0 897.1 -1.1 93
2019-11-20 04:00:00 -1 -- -- 2 Nordeste 0 897.5 -1.2 93
2019-11-20 03:00:00 -0.9 -- -- 4 Noroeste 0 897.9 -1.2 92
2019-11-20 02:00:00 -0.9 -- -- 6 Oeste 0 898.2 -1.4 92
2019-11-20 01:00:00 -0.2 -- -- 7 Noroeste 0 898.7 -1 92
2019-11-20 00:00:00 -0.5 -- -- 3 Noroeste 0 899.1 -0.6 90
2019-11-19 23:00:00 -0.2 -- -- 3 Noroeste 0 899.6 -0.1 89
2019-11-19 22:00:00 0.5 -- -- 0 Calma 0 899.7 0.2 87
2019-11-19 21:00:00 1.1 -- -- 6 Noroeste 0 899.7 0.3 83
2019-11-19 20:00:00 2.4 -- -- 4 Oeste 0 899.7 0.5 79
2019-11-19 19:00:00 4.3 -- -- 5 Nordeste 0 899.5 0.1 72
2019-11-19 18:00:00 5.7 -- -- 10 Este 0 899.4 0 64
2019-11-19 17:00:00 6.9 -- -- 12 Sudeste 0 899.2 -0.6 59
2019-11-19 16:00:00 7.6 -- -- 16 Este 0 899.4 -1.1 54
2019-11-19 15:00:00 7.9 -- -- 16 Sudeste 0 899.4 -1.9 54
2019-11-19 14:00:00 8.7 -- -- 17 Sudeste 0 899.8 -2.2 51
2019-11-19 13:00:00 9 -- -- 12 Sudeste 0 900.5 -1.7 47
2019-11-19 12:00:00 8.1 -- -- 9 Oeste 0 901.3 -1.1 53
2019-11-19 11:00:00 5.1 -- -- 12 Oeste 0 902 0.3 71
2019-11-19 10:00:00 2.8 -- -- 9 Nordeste 0 902.2 0.6 81
2019-11-19 09:00:00 -0.7 -- -- 5 Sudeste 0 902.4 0.7 90
2019-11-19 08:00:00 -1.5 -- -- 9 Noroeste 0 901.7 -0.1 89
2019-11-19 07:00:00 -1.3 -- -- 8 Oeste 0 901.6 -0.2 88
2019-11-19 06:00:00 -1.3 -- -- 10 Norte 0 901.7 0 85
2019-11-19 05:00:00 -0.6 -- -- 11 Norte 0 901.8 0 81
2019-11-19 04:00:00 1.4 -- -- 12 Norte 0 901.8 -0.1 77
2019-11-19 03:00:00 0.6 -- -- 14 Norte 0 901.7 -0.8 79
2019-11-19 02:00:00 2 -- -- 14 Norte 0 901.8 -0.5 77
2019-11-19 01:00:00 2.3 -- -- 19 Noroeste 0 901.9 0 73
2019-11-19 00:00:00 3.7 -- -- 17 Noroeste 0 902.5 0.7 69
2019-11-18 23:00:00 2.8 -- -- 19 Noroeste 0 902.3 1 67
2019-11-18 22:00:00 4.6 -- -- 26 Noroeste 0 901.9 0.3 64
2019-11-18 21:00:00 4.6 -- -- 22 Noroeste 0 901.8 0.6 68
2019-11-18 20:00:00 4.6 -- -- 19 Noroeste 0 901.3 0.3 68
2019-11-18 19:00:00 4.7 -- -- 13 Noroeste 0 901.6 0.9 69
2019-11-18 18:00:00 4.7 -- -- 15 Noroeste 0 901.2 1 71
2019-11-18 17:00:00 4.7 -- -- 25 Noroeste 0 901 1.6 74
2019-11-18 16:00:00 4.7 -- -- 32 Noroeste 0 900.7 1 75
2019-11-18 15:00:00 5.2 -- -- 30 Noroeste 0 900.2 0.5 68
2019-11-18 14:00:00 5.4 -- -- 33 Norte 0 899.4 0.1 64
2019-11-18 13:00:00 4.7 -- -- 37 Noroeste 0 899.7 0.7 71
2019-11-18 12:00:00 4.7 -- -- 41 Noroeste 0 899.7 1.8 72
2019-11-18 11:00:00 5.2 -- -- 39 Noroeste 0 899.3 2.1 69
2019-11-18 10:00:00 4.8 -- -- 45 Noroeste 0 899 1.8 67
2019-11-18 09:00:00 3.3 -- -- 45 Noroeste 0 897.9 1.1 74
2019-11-18 08:00:00 3.1 -- -- 33 Noroeste 0 897.2 0.3 73
2019-11-18 07:00:00 3 -- -- 33 Noroeste 0 897.2 0.8 75
2019-11-18 06:00:00 3.4 -- -- 29 Noroeste 0 896.8 0.9 75
2019-11-18 05:00:00 3.2 -- -- 30 Noroeste 0 896.9 1.2 81
2019-11-18 04:00:00 3.7 -- -- 31 Noroeste 0 896.4 1.1 77
2019-11-18 03:00:00 3.7 -- -- 33 Oeste 0 895.9 0.5 77
2019-11-18 02:00:00 4.4 -- -- 32 Oeste 0 895.7 0.6 74
2019-11-18 01:00:00 4.6 -- -- 28 Sudoeste 0 895.3 0.6 70
2019-11-18 00:00:00 4.7 -- -- 22 Nordeste 0 895.4 1 68
2019-11-17 23:00:00 4.7 -- -- 19 Oeste 0 895.1 0.6 69
2019-11-17 22:00:00 5.5 -- -- 17 Noroeste 0 894.7 0.2 74
2019-11-17 21:00:00 6.5 -- -- 28 Sudoeste 0 894.4 -0.3 73
2019-11-17 20:00:00 6 -- -- 24 Sudoeste 0 894.5 -0.5 89
2019-11-17 19:00:00 4.7 -- -- 10 Nordeste 0.2 894.5 -0.8 93
2019-11-17 18:00:00 4.9 -- -- 19 Norte 0.2 894.7 -1.4 93
2019-11-17 17:00:00 4.6 -- -- 17 Nordeste 0.6 895 -1.6 93
2019-11-17 16:00:00 4 -- -- 13 Sudeste 0.7 895.3 -1.7 93
2019-11-17 15:00:00 3.5 -- -- 15 Este 1 896.1 -1.9 92
2019-11-17 14:00:00 3.2 -- -- 13 Este 1.2 896.6 -1.8 89
2019-11-17 13:00:00 4.1 -- -- 11 Este 1.6 897 -1.6 85
2019-11-17 12:00:00 4.7 -- -- 11 Sudeste 0.3 898 -- 77
2019-11-17 11:00:00 3.8 -- -- 11 Este 0 898.4 -0.4 77
2019-11-17 10:00:00 3.7 -- -- -- -- -- 898.6 -0.2 76
2019-11-17 09:00:00 -- -- -- -- -- -- -- -- --
2019-11-17 08:00:00 3.5 -- -- 8 Este 0 898.8 -0.8 77
2019-11-17 07:00:00 3.9 -- -- 13 Noroeste 0 898.8 -0.8 76
2019-11-17 06:00:00 3.4 -- -- 9 Oeste 0 899.4 -0.4 76
2019-11-17 05:00:00 3.2 -- -- 12 Sur 0 899.6 -0.5 71
2019-11-17 04:00:00 3.5 -- -- 12 Sudoeste 0 899.6 -0.6 66
2019-11-17 03:00:00 3 -- -- 12 Oeste 0 899.8 -0.6 66
2019-11-17 02:00:00 2.3 -- -- 18 Oeste 0 900.1 -0.7 64
2019-11-17 01:00:00 3 -- -- 28 Sudoeste 0 900.2 -0.8 62
2019-11-17 00:00:00 3.1 -- -- 28 Oeste 0 900.4 0 62
2019-11-16 23:00:00 3.6 -- -- 30 Oeste 0 900.8 0.4 63
2019-11-16 22:00:00 3.5 -- -- 24 Oeste 0 901 0.9 63
2019-11-16 21:00:00 4.4 -- -- 21 Sudoeste 0 900.4 0.4 60
2019-11-16 20:00:00 4.2 -- -- 24 Oeste 0 900.4 0.8 59
2019-11-16 19:00:00 4.4 -- -- 19 Oeste 0 900.1 0.5 59
2019-11-16 18:00:00 4.5 -- -- 21 Oeste 0 900 0.5 58
2019-11-16 17:00:00 5 -- -- 29 Oeste 0 899.6 0.8 57
2019-11-16 16:00:00 5.9 -- -- 31 Oeste 0 899.6 0.4 52
2019-11-16 15:00:00 5.7 -- -- 37 Oeste 0 899.5 0.1 51
2019-11-16 14:00:00 6.1 -- -- 34 Oeste 0 898.8 -0.5 52
2019-11-16 13:00:00 5.2 -- -- 32 Noroeste 0 899.2 0.6 57
2019-11-16 12:00:00 4.8 -- -- 31 Oeste 0 899.4 1.4 61
2019-11-16 11:00:00 4.2 -- -- 29 Oeste 0 899.3 1.5 63
2019-11-16 10:00:00 2.9 -- -- 20 Norte 0 898.6 1.8 67
2019-11-16 09:00:00 1 -- -- 13 Oeste 0 898 1.8 76
2019-11-16 08:00:00 0.6 -- -- 19 Sudoeste 0 897.8 2.1 75
2019-11-16 07:00:00 0.9 -- -- 17 Sudoeste 0 896.8 1.7 74
2019-11-16 06:00:00 1.4 -- -- 19 Oeste 0 896.2 1.4 73
2019-11-16 05:00:00 1.1 -- -- 29 Oeste 0 895.7 1.3 74
2019-11-16 04:00:00 1.5 -- -- 28 Sudoeste 0 895.1 1.2 75
2019-11-16 03:00:00 1.5 -- -- 28 Oeste 0 894.8 1.2 77
2019-11-16 02:00:00 1.5 -- -- 26 Oeste 0 894.4 1.4 76
2019-11-16 01:00:00 2.4 -- -- 28 Oeste 0 893.9 1.1 72
2019-11-16 00:00:00 2.3 -- -- 23 Oeste 0 893.6 1.7 76
2019-11-15 23:00:00 1.8 -- -- 20 Sudoeste 0 893 1.8 82
2019-11-15 22:00:00 2.2 -- -- 31 Sudoeste 0 892.8 2 76
2019-11-15 21:00:00 3.7 -- -- 31 Oeste 0 891.9 1.3 65
2019-11-15 20:00:00 4.4 -- -- 30 Oeste 0 891.2 0.9 64
2019-11-15 19:00:00 4.5 -- -- 25 Oeste 0 890.8 0.6 63
2019-11-15 18:00:00 4.5 -- -- 23 Sudoeste 0 890.6 0.4 63
2019-11-15 17:00:00 4.5 -- -- 31 Sudoeste 0 890.3 0.2 64
2019-11-15 16:00:00 4.4 -- -- 31 Sudoeste 0 890.2 -0.5 65
2019-11-15 15:00:00 4.5 -- -- 41 Sudoeste 0 890.2 -0.9 65
2019-11-15 14:00:00 5.7 -- -- 32 Sudoeste 0 890.1 -0.7 66
2019-11-15 13:00:00 3 -- -- 22 Sudoeste 0 890.7 0.5 75
2019-11-15 12:00:00 2.3 -- -- 24 Sudoeste 0 891.1 1.2 77
2019-11-15 11:00:00 2.3 -- -- 27 Sur 0 890.8 1.1 77
2019-11-15 10:00:00 2.9 -- -- 14 Sur 0 890.2 1.4 76
2019-11-15 09:00:00 2 9 Sudoeste 33 Oeste 0 889.9 1.5 76
2019-11-15 08:00:00 1.9 12 Sudoeste 30 Sur 0 889.7 1.7 76
2019-11-15 07:00:00 2.3 9 Sudoeste 23 Sudeste 0 888.8 0.6 76
2019-11-15 06:00:00 2 5 Sur 26 Sur 0 888.4 0.5 76
2019-11-15 05:00:00 2.1 3 Sur 31 Sudoeste 0.1 888 0.6 76
2019-11-15 04:00:00 1.7 0 Calma 22 Sudoeste 0 888.2 -0.1 82
2019-11-15 03:00:00 1.6 0 Calma 41 Sudoeste 0.1 887.9 -0.3 80
2019-11-15 02:00:00 1.9 20 Sudoeste 49 Sudoeste 0.2 887.4 -0.1 80
2019-11-15 01:00:00 1.9 11 Sudoeste 30 Sudoeste 0 888.3 2.1 80
2019-11-15 00:00:00 2.1 17 Sur 38 Sur 0 888.2 2.6 79
2019-11-14 23:00:00 2.3 19 Sudoeste 46 Sudeste 0.2 887.5 2.4 76
2019-11-14 22:00:00 2.3 20 Sudeste 46 Sudeste 1.4 886.2 1.2 83
2019-11-14 21:00:00 2.3 26 Este 58 Norte 1.5 885.6 1.4 78
2019-11-14 20:00:00 2.6 28 Noroeste 57 Oeste 1.7 885.1 0.5 80
2019-11-14 19:00:00 1.1 10 Sudeste 35 Sudeste 1.5 885 -0.2 87
2019-11-14 18:00:00 2.7 4 Nordeste 17 Nordeste 0.5 884.2 -1.8 84
2019-11-14 17:00:00 2 6 Nordeste 26 Sudeste 0.8 884.6 -1.6 84
2019-11-14 16:00:00 4.5 6 Nordeste 31 Este 0 885.2 -2.5 66
2019-11-14 15:00:00 4.9 5 Nordeste 35 Sudeste 0 886 -2.8 63
2019-11-14 14:00:00 5.5 18 Sudeste 50 Sudeste 0 886.2 -2.8 54
2019-11-14 13:00:00 5 15 Sudeste 44 Sudeste 0 887.7 -- 58
2019-11-14 12:00:00 4.5 11 Sudeste 29 Sudeste 0.1 888.8 -- 63
2019-11-14 11:00:00 4.5 13 Sudeste 30 Sudeste 0 889 -- 68
2019-11-14 10:00:00 -- -- -- -- -- -- -- -- --
2019-11-14 09:00:00 -- -- -- -- -- -- -- -- --
2019-11-14 08:00:00 -- 14 Sudeste -- -- -- -- -- --
2019-11-14 07:00:00 -- 16 Sur 57 Nordeste 1.4 -- -- --
2019-11-14 06:00:00 6.8 10 Nordeste 44 Norte 0 887.7 -4.5 70
2019-11-14 05:00:00 6.2 7 Noroeste 26 Norte 0 888.9 -4.7 73
2019-11-14 04:00:00 7.3 10 Noroeste 38 Norte 0 890.8 -3.4 62
2019-11-14 03:00:00 7.2 5 Oeste 15 Oeste 0 892.2 -2.4 60
2019-11-14 02:00:00 7.5 5 Oeste 27 Noroeste 0 893.6 -1.6 60
2019-11-14 01:00:00 8.4 6 Oeste 33 Norte 0 894.2 -2 60
2019-11-14 00:00:00 8.5 0 Calma 9 Oeste 0 894.6 -2.3 64
2019-11-13 23:00:00 8.5 0 Calma 8 Nordeste 0 895.2 -2.1 68
2019-11-13 22:00:00 8 3 Sudeste 10 Este 0 896.2 -1.6 73
2019-11-13 21:00:00 7.2 3 Nordeste 10 Nordeste 0 896.9 -1.4 75
2019-11-13 20:00:00 7.8 4 Este 8 Este 0 897.3 -0.9 70
2019-11-13 19:00:00 9.2 0 Calma 13 Nordeste 0 897.8 -0.2 62
2019-11-13 18:00:00 9.8 10 Nordeste 18 Nordeste 0 898.3 0.4 56
2019-11-13 17:00:00 10.6 7 Nordeste 24 Nordeste 0 898.2 -- 55
2019-11-13 16:00:00 11 12 Norte 24 Norte 0 898 0.1 52
2019-11-13 15:00:00 11.3 10 Nordeste 26 Norte 0 897.9 -- 56
2019-11-13 14:00:00 -- 12 Norte 23 Norte 0 -- -- --
2019-11-13 13:00:00 9.6 5 Sur 19 Sur 0 897.9 1.9 63
2019-11-13 12:00:00 -- 2 Sudeste 35 Nordeste 0 -- -- --
2019-11-13 11:00:00 8.4 18 Nordeste 44 Nordeste 0 896.8 4.7 71
2019-11-13 10:00:00 8.4 19 Nordeste 42 Nordeste 0.1 896 4.7 71
2019-11-13 09:00:00 7.9 17 Nordeste 50 Nordeste 1.2 894.8 3.7 85
2019-11-13 08:00:00 10.5 26 Norte 53 Norte 0.5 892.1 1.6 77
2019-11-13 07:00:00 10.2 17 Norte 48 Noroeste 3 891.3 0.6 86
2019-11-13 06:00:00 10.7 26 Noroeste 65 Oeste 0.1 891.1 -0.5 80
2019-11-13 05:00:00 11.2 29 Sudoeste 59 Sudoeste 0.3 890.5 -1.7 76
2019-11-13 04:00:00 11.1 21 Sur 49 Sur 2.6 890.7 -2.1 76
2019-11-13 03:00:00 10.7 11 Sudeste 38 Este 4.7 891.6 -2.5 82
2019-11-13 02:00:00 9.3 8 Norte 23 Sudeste 0.4 892.2 -3.1 87
2019-11-13 01:00:00 7.7 8 Oeste 17 Oeste 0.2 892.8 -3.3 92
2019-11-13 00:00:00 6.9 6 Oeste 17 Oeste 0.5 894.1 -2.8 91
2019-11-12 23:00:00 6.8 0 Calma 15 Oeste 2.5 895.3 -2.4 90
2019-11-12 22:00:00 6.3 6 Sudoeste 15 Sudoeste 1 896.1 -2 88
2019-11-12 21:00:00 6 0 Calma 7 Sur 0.7 896.9 -1.4 85
2019-11-12 20:00:00 6.1 2 Sur 8 Sudoeste 0.5 897.7 -0.7 81
2019-11-12 19:00:00 7 3 Oeste 8 Sudoeste 0.1 898.1 -1 70
2019-11-12 18:00:00 7.9 0 Calma 16 Sudeste 0 898.3 -1.5 59
2019-11-12 17:00:00 8.3 5 Sur 16 Sur 0 898.4 -1.9 57
2019-11-12 16:00:00 8.2 8 Sur 23 Sur 0 899.1 -1.8 56
2019-11-12 15:00:00 8.6 12 Sudeste 29 Sudeste 0 899.8 -1.6 54
2019-11-12 14:00:00 8.6 15 Sudeste 31 Este 0 900.3 -1.2 57
2019-11-12 13:00:00 7.5 15 Sudeste 30 Este 0 900.9 -0.7 60
2019-11-12 12:00:00 7 15 Este 33 Este 0 901.4 -0.1 62
2019-11-12 11:00:00 6.5 20 Este 35 Nordeste 0 901.5 0.2 62
2019-11-12 10:00:00 5.4 17 Nordeste 30 Norte 0 901.6 0.8 64
2019-11-12 09:00:00 5 9 Nordeste 19 Nordeste 0 901.5 0.1 67
2019-11-12 08:00:00 4.7 8 Nordeste 27 Norte 0 901.3 0.2 67
2019-11-12 07:00:00 4.7 5 Nordeste 24 Norte 0 900.8 -0.7 68
2019-11-12 06:00:00 4.7 17 Nordeste 33 Nordeste 0 901.4 -0.8 67
2019-11-12 05:00:00 4.7 17 Nordeste 28 Norte 0 901.1 -1.6 67
2019-11-12 04:00:00 4.8 9 Nordeste 25 Este 0 901.5 -2 67
2019-11-12 03:00:00 4.8 3 Nordeste 23 Nordeste 0 902.2 -1 68
2019-11-12 02:00:00 4.6 7 Nordeste 25 Este 0 902.7 -0.6 71
2019-11-12 01:00:00 4.5 10 Nordeste 27 Nordeste 0 903.5 0.3 71
2019-11-12 00:00:00 4.5 10 Nordeste 33 Nordeste 0 903.2 0.1 71